createdAt,value
2018-06-27T00:01:32.261Z,93.00
2018-06-27T00:04:01.097Z,93.20
2018-06-27T00:06:29.925Z,93.40
2018-06-27T00:08:58.771Z,93.80
2018-06-27T00:11:27.601Z,94.50
2018-06-27T00:13:56.452Z,94.50
2018-06-27T00:16:25.285Z,94.90
2018-06-27T00:18:54.452Z,95.10
2018-06-27T00:21:23.281Z,95.40
2018-06-27T00:23:52.804Z,95.60
2018-06-27T00:26:21.647Z,95.80
2018-06-27T00:28:50.480Z,95.80
2018-06-27T00:31:19.316Z,95.80
2018-06-27T00:33:48.224Z,96.00
2018-06-27T00:36:17.033Z,96.20
2018-06-27T00:38:45.876Z,96.40
2018-06-27T00:41:14.721Z,96.60
2018-06-27T00:43:43.552Z,96.70
2018-06-27T00:46:12.476Z,96.90
2018-06-27T00:48:41.293Z,97.10
2018-06-27T00:51:10.119Z,97.30
2018-06-27T00:53:44.471Z,97.30
2018-06-27T00:56:13.343Z,97.30
2018-06-27T00:58:42.173Z,98.10
2018-06-27T01:01:11.024Z,98.00
2018-06-27T01:03:39.852Z,98.00
2018-06-27T01:06:08.712Z,98.40
2018-06-27T01:08:37.548Z,98.60
2018-06-27T01:11:06.381Z,98.80
2018-06-27T01:13:35.213Z,99.10
2018-06-27T01:16:04.114Z,99.40
2018-06-27T01:18:32.948Z,99.60
2018-06-27T01:21:02.684Z,99.80
2018-06-27T01:23:31.519Z,99.90
2018-06-27T01:26:00.392Z,99.90
2018-06-27T01:28:30.101Z,99.90
2018-06-27T01:30:59.000Z,99.90
2018-06-27T01:33:27.844Z,99.90
2018-06-27T01:38:25.256Z,99.90
2018-06-27T01:40:54.113Z,99.90
2018-06-27T01:43:22.924Z,99.90
2018-06-27T01:45:51.800Z,99.90
2018-06-27T01:48:20.662Z,99.90
2018-06-27T01:50:49.487Z,99.90
2018-06-27T01:53:19.231Z,99.90
2018-06-27T01:55:48.065Z,99.90
2018-06-27T01:58:16.883Z,99.90
2018-06-27T02:00:45.723Z,99.90
2018-06-27T02:03:14.552Z,99.90
2018-06-27T02:05:43.412Z,99.90
2018-06-27T02:08:12.259Z,99.90
2018-06-27T02:10:41.084Z,99.90
2018-06-27T02:13:10.033Z,99.90
2018-06-27T02:15:38.875Z,99.90
2018-06-27T02:18:07.695Z,99.90
2018-06-27T02:20:36.533Z,99.90
2018-06-27T02:23:09.783Z,99.90
2018-06-27T02:25:39.115Z,99.90
2018-06-27T02:28:08.732Z,99.90
2018-06-27T02:30:37.559Z,99.90
2018-06-27T02:33:06.395Z,99.90
2018-06-27T02:35:35.216Z,99.90
2018-06-27T02:38:04.048Z,99.90
2018-06-27T02:40:32.873Z,99.90
2018-06-27T02:43:01.729Z,99.90
2018-06-27T02:45:30.644Z,99.90
2018-06-27T02:47:59.526Z,99.90
2018-06-27T02:50:28.359Z,99.90
2018-06-27T02:52:57.255Z,99.90
2018-06-27T02:55:26.080Z,99.90
2018-06-27T02:57:54.899Z,99.90
2018-06-27T03:00:23.733Z,99.90
2018-06-27T03:02:52.572Z,99.90
2018-06-27T03:05:21.383Z,99.90
2018-06-27T03:07:50.225Z,99.90
2018-06-27T03:10:19.363Z,99.90
2018-06-27T03:12:48.197Z,99.90
2018-06-27T03:15:17.025Z,99.90
2018-06-27T03:17:46.707Z,99.90
2018-06-27T03:20:15.705Z,99.90
2018-06-27T03:22:44.905Z,99.90
2018-06-27T03:25:13.709Z,99.90
2018-06-27T03:27:42.883Z,99.90
2018-06-27T03:30:11.727Z,99.90
2018-06-27T03:32:40.565Z,99.90
2018-06-27T03:35:09.372Z,99.90
2018-06-27T03:37:38.226Z,99.90
2018-06-27T03:40:07.037Z,99.90
2018-06-27T03:42:35.859Z,99.90
2018-06-27T03:45:04.728Z,99.90
2018-06-27T03:47:33.547Z,99.90
2018-06-27T03:50:02.384Z,99.90
2018-06-27T03:52:31.211Z,99.90
2018-06-27T03:55:00.026Z,99.90
2018-06-27T03:57:28.836Z,99.90
2018-06-27T03:59:57.655Z,99.90
2018-06-27T04:02:26.483Z,99.90
2018-06-27T04:04:55.304Z,99.40
2018-06-27T04:07:24.194Z,99.00
2018-06-27T04:09:53.100Z,98.40
2018-06-27T04:12:21.960Z,97.80
2018-06-27T04:14:50.781Z,97.20
2018-06-27T04:17:19.603Z,96.60
2018-06-27T04:19:48.436Z,96.00
2018-06-27T04:22:22.860Z,95.30
2018-06-27T04:24:51.687Z,94.60
2018-06-27T04:27:20.513Z,94.00
2018-06-27T04:29:49.319Z,93.50
2018-06-27T04:32:18.160Z,93.40
2018-06-27T04:34:46.988Z,93.20
2018-06-27T04:37:16.715Z,92.50
2018-06-27T04:39:45.616Z,91.90
2018-06-27T04:42:14.500Z,91.40
2018-06-27T04:44:43.332Z,90.80
2018-06-27T04:47:12.156Z,89.80
2018-06-27T04:49:41.051Z,89.40
2018-06-27T04:52:09.883Z,88.50
2018-06-27T04:57:07.448Z,84.10
2018-06-27T04:59:36.272Z,81.70
2018-06-27T05:02:05.112Z,79.80
2018-06-27T05:04:34.760Z,78.00
2018-06-27T05:07:03.604Z,76.00
2018-06-27T05:09:33.316Z,73.60
2018-06-27T05:12:02.152Z,73.00
2018-06-27T05:14:30.971Z,70.60
2018-06-27T05:16:59.792Z,68.00
2018-06-27T05:19:28.627Z,64.80
2018-06-27T05:21:57.475Z,62.00
2018-06-27T05:24:26.288Z,58.90
2018-06-27T05:26:55.103Z,55.40
2018-06-27T05:29:23.999Z,53.10
2018-06-27T05:31:52.822Z,51.40
2018-06-27T05:34:21.695Z,49.10
2018-06-27T05:36:50.571Z,46.50
2018-06-27T05:39:19.486Z,44.10
2018-06-27T05:41:48.296Z,42.40
2018-06-27T05:44:17.126Z,44.80
2018-06-27T05:46:45.916Z,48.50
2018-06-27T05:49:14.734Z,50.70
2018-06-27T05:51:43.676Z,51.10
2018-06-27T05:54:12.411Z,49.90
2018-06-27T05:56:41.234Z,47.50
2018-06-27T05:59:10.060Z,45.30
2018-06-27T06:01:38.963Z,43.20
2018-06-27T06:04:07.805Z,41.70
2018-06-27T06:06:36.655Z,42.70
2018-06-27T06:09:08.436Z,40.60
2018-06-27T06:11:37.379Z,38.40
2018-06-27T06:14:06.285Z,37.40
2018-06-27T06:16:35.364Z,35.70
2018-06-27T06:19:04.411Z,36.00
2018-06-27T06:21:33.220Z,37.10
2018-06-27T06:24:02.057Z,37.50
2018-06-27T06:26:30.940Z,39.40
2018-06-27T06:28:59.752Z,41.50
2018-06-27T06:31:28.559Z,42.40
2018-06-27T06:33:57.391Z,40.10
2018-06-27T06:36:26.218Z,39.20
2018-06-27T06:38:55.655Z,40.50
2018-06-27T06:41:24.480Z,38.20
2018-06-27T06:43:53.304Z,38.80
2018-06-27T06:46:22.128Z,41.00
2018-06-27T06:48:50.940Z,42.40
2018-06-27T06:51:19.869Z,43.60
2018-06-27T06:53:48.659Z,45.60
2018-06-27T06:56:17.479Z,48.80
2018-06-27T06:58:46.354Z,53.30
2018-06-27T07:01:15.184Z,57.90
2018-06-27T07:03:44.023Z,61.20
2018-06-27T07:06:12.866Z,61.00
2018-06-27T07:08:42.688Z,61.20
2018-06-27T07:11:11.539Z,61.50
2018-06-27T07:13:40.316Z,59.60
2018-06-27T07:18:37.719Z,58.10
2018-06-27T07:21:06.653Z,58.50
2018-06-27T07:23:35.448Z,60.80
2018-06-27T07:28:32.904Z,61.10
2018-06-27T07:31:01.649Z,57.90
2018-06-27T07:33:30.468Z,56.30
2018-06-27T07:35:59.320Z,55.60
2018-06-27T07:38:28.144Z,54.30
2018-06-27T07:40:56.963Z,54.60
2018-06-27T07:43:25.772Z,54.70
2018-06-27T07:45:54.584Z,54.30
2018-06-27T07:48:24.296Z,57.00
2018-06-27T07:50:53.089Z,59.30
2018-06-27T07:53:21.907Z,61.80
2018-06-27T07:55:50.724Z,65.00
2018-06-27T07:58:20.189Z,67.50
2018-06-27T08:00:49.009Z,69.40
2018-06-27T08:03:17.836Z,69.30
2018-06-27T08:05:46.734Z,65.20
2018-06-27T08:08:15.500Z,62.10
2018-06-27T08:10:44.303Z,61.80
2018-06-27T08:13:13.234Z,64.20
2018-06-27T08:15:42.043Z,67.00
2018-06-27T08:18:10.893Z,69.60
2018-06-27T08:20:39.731Z,71.00
2018-06-27T08:23:08.540Z,71.40
2018-06-27T08:25:41.607Z,71.90
2018-06-27T08:28:10.428Z,71.80
2018-06-27T08:30:39.248Z,72.00
2018-06-27T08:33:08.080Z,72.30
2018-06-27T08:35:36.909Z,73.10
2018-06-27T08:38:05.760Z,72.90
2018-06-27T08:40:34.596Z,72.30
2018-06-27T08:43:03.432Z,70.90
2018-06-27T08:45:32.244Z,68.70
2018-06-27T08:48:01.168Z,65.60
2018-06-27T08:50:30.009Z,64.30
2018-06-27T08:52:59.400Z,63.20
2018-06-27T08:55:28.249Z,63.80
2018-06-27T08:57:57.070Z,62.80
2018-06-27T09:02:54.404Z,66.40
2018-06-27T09:05:23.222Z,67.10
2018-06-27T09:07:52.039Z,69.90
2018-06-27T09:10:20.860Z,71.50
2018-06-27T09:12:49.721Z,70.70
2018-06-27T09:15:18.515Z,69.80
2018-06-27T09:17:47.335Z,68.40
2018-06-27T09:20:16.508Z,61.70
2018-06-27T09:22:45.343Z,60.60
2018-06-27T09:25:14.162Z,59.20
2018-06-27T09:27:42.989Z,58.00
2018-06-27T09:30:11.823Z,58.90
2018-06-27T09:32:40.630Z,60.80
2018-06-27T09:35:09.443Z,64.40
2018-06-27T09:37:38.288Z,64.20
2018-06-27T09:40:07.120Z,63.10
2018-06-27T09:42:36.944Z,62.70
2018-06-27T09:45:05.748Z,62.80
2018-06-27T09:47:35.023Z,63.80
2018-06-27T09:50:04.557Z,63.90
2018-06-27T09:52:33.674Z,64.60
2018-06-27T09:55:02.496Z,65.60
2018-06-27T09:57:31.344Z,66.80
2018-06-27T10:00:00.190Z,66.80
2018-06-27T10:02:29.036Z,66.60
2018-06-27T10:04:57.840Z,66.20
2018-06-27T10:07:26.686Z,65.50
2018-06-27T10:09:55.508Z,64.50
2018-06-27T10:12:24.393Z,63.10
2018-06-27T10:14:53.227Z,63.70
2018-06-27T10:17:22.175Z,62.90
2018-06-27T10:19:50.968Z,59.20
2018-06-27T10:22:19.827Z,59.00
2018-06-27T10:24:48.673Z,55.80
2018-06-27T10:27:17.468Z,55.70
2018-06-27T10:29:46.348Z,54.10
2018-06-27T10:32:15.165Z,52.70
2018-06-27T10:34:44.508Z,54.20
2018-06-27T10:37:13.296Z,55.50
2018-06-27T10:39:42.833Z,56.80
2018-06-27T10:42:11.674Z,55.70
2018-06-27T10:44:40.481Z,55.10
2018-06-27T10:47:09.298Z,56.00
2018-06-27T10:49:38.588Z,55.10
2018-06-27T10:52:07.387Z,55.50
2018-06-27T10:54:41.613Z,54.70
2018-06-27T10:57:10.423Z,53.40
2018-06-27T10:59:39.275Z,51.50
2018-06-27T11:02:08.096Z,53.20
2018-06-27T11:04:36.915Z,51.20
2018-06-27T11:07:05.731Z,53.10
2018-06-27T11:09:35.154Z,53.40
2018-06-27T11:12:03.996Z,52.00
2018-06-27T11:14:32.812Z,53.00
2018-06-27T11:17:01.648Z,53.20
2018-06-27T11:19:30.460Z,53.90
2018-06-27T11:21:59.412Z,53.70
2018-06-27T11:24:29.047Z,53.50
2018-06-27T11:26:57.908Z,54.70
2018-06-27T11:29:26.692Z,53.80
2018-06-27T11:31:55.505Z,53.40
2018-06-27T11:34:24.344Z,54.00
2018-06-27T11:36:53.152Z,54.20
2018-06-27T11:39:21.982Z,52.90
2018-06-27T11:41:50.961Z,52.90
2018-06-27T11:44:19.741Z,51.70
2018-06-27T11:46:48.591Z,50.60
2018-06-27T11:49:17.396Z,51.10
2018-06-27T11:51:47.104Z,50.00
2018-06-27T11:54:15.984Z,51.30
2018-06-27T11:56:44.816Z,51.60
2018-06-27T11:59:13.698Z,52.80
2018-06-27T12:01:42.568Z,52.60
2018-06-27T12:04:11.436Z,54.00
2018-06-27T12:06:40.244Z,53.40
2018-06-27T12:09:10.038Z,52.40
2018-06-27T12:11:38.880Z,52.30
2018-06-27T12:14:07.735Z,52.00
2018-06-27T12:16:36.548Z,52.50
2018-06-27T12:19:05.899Z,53.20
2018-06-27T12:21:34.731Z,53.70
2018-06-27T12:24:03.564Z,53.70
2018-06-27T12:26:32.372Z,53.20
2018-06-27T12:29:01.177Z,52.90
2018-06-27T12:31:30.363Z,53.10
2018-06-27T12:33:59.694Z,51.80
2018-06-27T12:36:28.492Z,51.90
2018-06-27T12:38:57.335Z,53.20
2018-06-27T12:41:26.228Z,53.80
2018-06-27T12:43:55.029Z,54.40
2018-06-27T12:46:23.844Z,54.20
2018-06-27T12:48:52.729Z,54.00
2018-06-27T12:51:21.508Z,52.10
2018-06-27T12:53:50.311Z,50.70
2018-06-27T12:56:19.126Z,50.60
2018-06-27T12:58:47.931Z,50.60
2018-06-27T13:01:16.760Z,49.40
2018-06-27T13:03:45.582Z,48.70
2018-06-27T13:08:43.868Z,49.20
2018-06-27T13:11:12.693Z,50.00
2018-06-27T13:13:41.496Z,49.40
2018-06-27T13:16:10.312Z,48.70
2018-06-27T13:18:39.136Z,48.80
2018-06-27T13:21:07.940Z,49.20
2018-06-27T13:23:36.764Z,49.80
2018-06-27T13:26:05.744Z,49.70
2018-06-27T13:28:34.555Z,50.00
2018-06-27T13:31:03.387Z,50.80
2018-06-27T13:33:32.207Z,51.00
2018-06-27T13:36:01.024Z,49.30
2018-06-27T13:38:29.830Z,48.60
2018-06-27T13:40:58.652Z,48.30
2018-06-27T13:43:27.480Z,47.60
2018-06-27T13:45:56.335Z,48.10
2018-06-27T13:48:25.160Z,49.00
2018-06-27T13:50:53.960Z,49.40
2018-06-27T13:53:22.772Z,49.70
2018-06-27T13:55:51.595Z,50.00
2018-06-27T13:58:20.575Z,50.30
2018-06-27T14:00:49.351Z,49.30
2018-06-27T14:03:18.167Z,49.40
2018-06-27T14:05:46.964Z,49.60
2018-06-27T14:08:15.852Z,49.50
2018-06-27T14:10:44.694Z,49.70
2018-06-27T14:13:13.560Z,49.80
2018-06-27T14:15:42.368Z,50.20
2018-06-27T14:18:11.196Z,50.00
2018-06-27T14:20:40.508Z,49.20
2018-06-27T14:23:09.346Z,49.00
2018-06-27T14:25:38.164Z,48.30
2018-06-27T14:28:06.999Z,47.40
2018-06-27T14:30:35.830Z,46.90
2018-06-27T14:33:05.045Z,47.70
2018-06-27T14:35:33.877Z,48.30
2018-06-27T14:38:03.337Z,49.20
2018-06-27T14:40:32.144Z,49.60
2018-06-27T14:43:00.960Z,50.10
2018-06-27T14:45:29.807Z,50.10
2018-06-27T14:47:59.354Z,49.60
2018-06-27T14:50:28.147Z,48.20
2018-06-27T14:52:56.960Z,48.10
2018-06-27T14:55:25.803Z,48.80
2018-06-27T14:57:54.960Z,48.50
2018-06-27T15:00:23.784Z,49.00
2018-06-27T15:02:52.612Z,49.60
2018-06-27T15:05:21.417Z,50.00
2018-06-27T15:07:50.247Z,50.20
2018-06-27T15:10:19.152Z,49.60
2018-06-27T15:12:47.992Z,49.00
2018-06-27T15:15:16.787Z,48.90
2018-06-27T15:17:45.688Z,49.00
2018-06-27T15:20:14.495Z,48.10
2018-06-27T15:22:43.299Z,47.40
2018-06-27T15:25:12.117Z,47.40
2018-06-27T15:27:41.571Z,47.70
2018-06-27T15:30:10.392Z,48.00
2018-06-27T15:32:39.196Z,48.80
2018-06-27T15:35:08.072Z,49.40
2018-06-27T15:37:36.825Z,49.00
2018-06-27T15:40:05.627Z,49.60
2018-06-27T15:42:34.583Z,50.00
2018-06-27T15:45:03.423Z,50.20
2018-06-27T15:47:32.254Z,50.80
2018-06-27T15:50:01.139Z,50.70
2018-06-27T15:52:29.950Z,50.50
2018-06-27T15:54:58.824Z,50.20
2018-06-27T15:57:27.651Z,49.70
2018-06-27T15:59:56.700Z,49.60
2018-06-27T16:02:25.520Z,48.10
2018-06-27T16:04:54.326Z,47.30
2018-06-27T16:07:23.131Z,47.90
2018-06-27T16:12:20.671Z,46.00
2018-06-27T16:14:49.501Z,47.20
2018-06-27T16:17:18.532Z,47.90
2018-06-27T16:19:47.128Z,48.80
2018-06-27T16:22:16.211Z,49.40
2018-06-27T16:24:45.191Z,49.60
2018-06-27T16:27:14.047Z,50.10
2018-06-27T16:29:42.864Z,50.50
2018-06-27T16:32:11.658Z,50.30
2018-06-27T16:34:41.328Z,50.80
2018-06-27T16:39:38.652Z,51.90
2018-06-27T16:42:07.523Z,51.90
2018-06-27T16:44:36.356Z,52.00
2018-06-27T16:47:05.174Z,52.00
2018-06-27T16:49:33.979Z,51.90
2018-06-27T16:52:02.777Z,51.60
2018-06-27T16:54:31.680Z,51.60
2018-06-27T16:57:00.466Z,51.30
2018-06-27T16:59:30.036Z,50.60
2018-06-27T17:01:58.967Z,50.80
2018-06-27T17:04:27.776Z,50.50
2018-06-27T17:06:56.662Z,50.80
2018-06-27T17:09:25.516Z,48.10
2018-06-27T17:11:54.360Z,48.50
2018-06-27T17:14:23.196Z,48.50
2018-06-27T17:16:52.016Z,48.50
2018-06-27T17:19:20.824Z,48.70
2018-06-27T17:21:49.662Z,49.00
2018-06-27T17:24:18.485Z,49.70
2018-06-27T17:26:47.275Z,49.30
2018-06-27T17:29:16.088Z,49.20
2018-06-27T17:31:44.980Z,49.50
2018-06-27T17:34:13.712Z,49.50
2018-06-27T17:36:42.512Z,50.00
2018-06-27T17:39:11.544Z,49.20
2018-06-27T17:41:40.368Z,49.60
2018-06-27T17:44:09.393Z,49.40
2018-06-27T17:46:38.199Z,48.90
2018-06-27T17:49:07.150Z,49.00
2018-06-27T17:51:35.965Z,49.30
2018-06-27T17:54:04.848Z,49.60
2018-06-27T17:56:33.664Z,49.70
2018-06-27T17:59:02.480Z,50.20
2018-06-27T18:01:31.321Z,51.00
2018-06-27T18:04:00.093Z,51.10
2018-06-27T18:06:28.892Z,50.90
2018-06-27T18:08:57.766Z,51.40
2018-06-27T18:11:26.499Z,51.70
2018-06-27T18:16:23.817Z,52.00
2018-06-27T18:18:52.645Z,52.30
2018-06-27T18:23:49.991Z,52.20
2018-06-27T18:26:19.199Z,52.50
2018-06-27T18:28:48.008Z,52.60
2018-06-27T18:31:16.809Z,52.80
2018-06-27T18:33:46.073Z,52.90
2018-06-27T18:36:14.872Z,52.90
2018-06-27T18:38:43.684Z,53.20
2018-06-27T18:41:12.500Z,54.20
2018-06-27T18:43:41.321Z,53.70
2018-06-27T18:46:10.128Z,53.40
2018-06-27T18:51:07.532Z,54.40
2018-06-27T18:53:36.452Z,53.90
2018-06-27T18:56:05.293Z,54.00
2018-06-27T18:58:34.112Z,54.40
2018-06-27T19:01:02.917Z,54.90
2018-06-27T19:03:31.750Z,55.10
2018-06-27T19:06:00.580Z,55.60
2018-06-27T19:08:29.421Z,56.00
2018-06-27T19:10:58.236Z,55.90
2018-06-27T19:13:27.168Z,56.20
2018-06-27T19:15:56.031Z,56.70
2018-06-27T19:18:24.809Z,56.90
2018-06-27T19:20:53.637Z,57.50
2018-06-27T19:23:22.473Z,57.60
2018-06-27T19:25:51.325Z,58.50
2018-06-27T19:28:20.135Z,58.40
2018-06-27T19:30:49.018Z,59.10
2018-06-27T19:33:17.831Z,60.70
2018-06-27T19:35:46.668Z,62.90
2018-06-27T19:38:15.551Z,63.20
2018-06-27T19:40:44.326Z,63.50
2018-06-27T19:43:13.400Z,64.00
2018-06-27T19:45:42.263Z,65.00
2018-06-27T19:48:11.540Z,65.20
2018-06-27T19:50:40.732Z,65.90
2018-06-27T19:53:09.532Z,66.50
2018-06-27T19:55:38.497Z,66.70
2018-06-27T19:58:07.225Z,67.00
2018-06-27T20:00:36.881Z,67.40
2018-06-27T20:03:05.704Z,67.80
2018-06-27T20:05:34.896Z,68.40
2018-06-27T20:08:03.789Z,68.70
2018-06-27T20:10:32.898Z,68.90
2018-06-27T20:13:01.766Z,69.20
2018-06-27T20:15:30.478Z,69.50
2018-06-27T20:20:27.895Z,69.80
2018-06-27T20:22:57.083Z,70.10
2018-06-27T20:25:25.960Z,70.20
2018-06-27T20:27:54.884Z,71.20
2018-06-27T20:30:23.697Z,70.80
2018-06-27T20:32:52.570Z,71.10
2018-06-27T20:35:21.393Z,71.40
2018-06-27T20:37:50.516Z,71.70
2018-06-27T20:40:19.598Z,71.90
2018-06-27T20:42:48.608Z,72.20
2018-06-27T20:45:17.440Z,72.30
2018-06-27T20:47:46.265Z,72.70
2018-06-27T20:50:15.492Z,72.90
2018-06-27T20:52:44.295Z,73.10
2018-06-27T20:55:13.113Z,73.60
2018-06-27T21:00:10.639Z,74.90
2018-06-27T21:02:39.464Z,74.10
2018-06-27T21:05:08.284Z,74.70
2018-06-27T21:07:37.107Z,75.00
2018-06-27T21:10:05.951Z,75.10
2018-06-27T21:12:34.785Z,75.20
2018-06-27T21:15:03.624Z,75.30
2018-06-27T21:17:32.455Z,75.60
2018-06-27T21:20:01.272Z,76.50
2018-06-27T21:22:30.137Z,75.80
2018-06-27T21:24:58.948Z,76.20
2018-06-27T21:27:27.785Z,76.30
2018-06-27T21:29:56.601Z,76.50
2018-06-27T21:32:26.428Z,77.30
2018-06-27T21:34:55.288Z,76.70
2018-06-27T21:37:24.132Z,77.10
2018-06-27T21:39:52.952Z,77.20
2018-06-27T21:42:21.768Z,77.30
2018-06-27T21:44:50.805Z,77.30
2018-06-27T21:47:19.600Z,77.60
2018-06-27T21:49:48.481Z,77.90
2018-06-27T21:52:17.275Z,77.80
2018-06-27T21:54:47.104Z,78.00
2018-06-27T21:57:15.933Z,78.20
2018-06-27T21:59:44.746Z,78.60
2018-06-27T22:02:13.565Z,78.60
2018-06-27T22:04:42.409Z,78.80
2018-06-27T22:07:11.228Z,78.90
2018-06-27T22:12:08.687Z,79.30
2018-06-27T22:14:37.512Z,79.30
2018-06-27T22:17:06.670Z,79.60
2018-06-27T22:19:35.523Z,79.90
2018-06-27T22:22:04.412Z,80.00
2018-06-27T22:24:33.424Z,80.20
2018-06-27T22:27:02.281Z,80.20
2018-06-27T22:29:31.103Z,80.30
2018-06-27T22:31:59.928Z,80.30
2018-06-27T22:34:28.772Z,80.50
2018-06-27T22:36:57.611Z,80.50
2018-06-27T22:39:26.436Z,80.80
2018-06-27T22:41:56.001Z,80.90
2018-06-27T22:44:24.792Z,80.90
2018-06-27T22:46:53.623Z,81.00
2018-06-27T22:49:22.419Z,81.40
2018-06-27T22:51:51.255Z,81.50
2018-06-27T22:54:20.067Z,81.50
2018-06-27T22:56:48.891Z,81.70
2018-06-27T22:59:17.716Z,81.80
2018-06-27T23:01:46.524Z,82.00
2018-06-27T23:04:15.326Z,82.40
2018-06-27T23:06:44.144Z,82.70
2018-06-27T23:09:12.967Z,82.90
2018-06-27T23:11:41.796Z,82.80
2018-06-27T23:14:10.596Z,82.90
2018-06-27T23:16:39.408Z,83.00
2018-06-27T23:19:08.232Z,83.10
2018-06-27T23:21:37.059Z,83.10
2018-06-27T23:24:05.904Z,83.10
2018-06-27T23:26:34.724Z,83.10
2018-06-27T23:29:03.532Z,83.10
2018-06-27T23:31:32.356Z,83.30
2018-06-27T23:34:01.192Z,83.50
2018-06-27T23:36:30.060Z,83.70
2018-06-27T23:38:58.859Z,84.00
2018-06-27T23:41:27.772Z,84.10
2018-06-27T23:43:56.588Z,84.30
2018-06-27T23:46:25.416Z,84.50
2018-06-27T23:48:54.228Z,84.60
2018-06-27T23:51:23.036Z,84.60
2018-06-27T23:53:51.847Z,84.40
2018-06-27T23:56:20.684Z,84.30
2018-06-27T23:58:49.497Z,85.20
